createdAt,value
2022-08-21T08:43:17.770Z,28.33
2022-08-21T08:45:50.413Z,28.51
2022-08-21T08:49:00.292Z,28.41
2022-08-21T08:51:56.590Z,28.68
2022-08-21T08:54:39.469Z,28.44
2022-08-21T08:57:15.157Z,28.60
2022-08-21T08:59:48.357Z,28.48
2022-08-21T09:02:17.298Z,28.23
2022-08-21T09:04:48.256Z,28.70
2022-08-21T09:07:47.681Z,28.92
2022-08-21T09:10:22.818Z,28.81
2022-08-21T09:13:20.584Z,29.13
2022-08-21T09:16:07.177Z,29.18
2022-08-21T09:18:39.046Z,29.08
2022-08-21T09:21:11.962Z,28.40
2022-08-21T09:23:49.237Z,28.66
2022-08-21T09:26:24.824Z,29.17
2022-08-21T09:29:02.668Z,29.07
2022-08-21T09:31:34.627Z,28.30
2022-08-21T09:34:13.541Z,28.94
2022-08-21T09:36:51.649Z,29.45
2022-08-21T09:39:25.382Z,29.57
2022-08-21T09:42:00.329Z,29.27
2022-08-21T09:44:37.939Z,29.22
2022-08-21T09:47:06.474Z,29.26
2022-08-21T09:49:41.227Z,29.27
2022-08-21T09:52:26.957Z,29.63
2022-08-21T09:54:57.515Z,29.62
2022-08-21T09:57:46.333Z,29.65
2022-08-21T10:00:31.163Z,29.54
2022-08-21T10:03:21.688Z,29.31
2022-08-21T10:05:59.324Z,29.66
2022-08-21T10:08:29.294Z,29.72
2022-08-21T10:11:18.422Z,29.43
2022-08-21T10:13:57.960Z,29.70
2022-08-21T10:16:31.317Z,29.84
2022-08-21T10:19:23.646Z,30.23
2022-08-21T10:22:16.723Z,30.69
2022-08-21T10:25:07.528Z,30.71
2022-08-21T10:27:34.934Z,30.51
2022-08-21T10:30:12.501Z,30.51
2022-08-21T10:33:12.796Z,30.21
2022-08-21T10:36:08.099Z,30.41
2022-08-21T10:39:23.821Z,30.95
2022-08-21T10:42:01.549Z,30.79
2022-08-21T10:44:40.510Z,31.20
2022-08-21T10:47:30.372Z,31.39
2022-08-21T10:50:23.553Z,31.47
2022-08-21T10:53:13.550Z,31.69
2022-08-21T10:56:02.446Z,31.41
2022-08-21T10:58:34.963Z,31.16
2022-08-21T11:01:14.897Z,31.46
2022-08-21T11:03:52.930Z,31.31
2022-08-21T11:06:32.703Z,31.31
2022-08-21T11:09:12.414Z,31.26
2022-08-21T11:16:08.426Z,31.13
2022-08-21T11:22:31.724Z,31.42
2022-08-21T11:25:17.407Z,31.23
2022-08-21T11:27:56.143Z,30.73
2022-08-21T11:30:28.386Z,30.75
2022-08-21T11:33:19.301Z,31.10
2022-08-21T11:36:06.170Z,30.95
2022-08-21T11:38:48.552Z,31.20
2022-08-21T11:41:38.515Z,31.32
2022-08-21T11:44:27.890Z,31.69
2022-08-21T11:47:16.762Z,31.58
2022-08-21T11:50:03.086Z,31.72
2022-08-21T11:52:39.524Z,31.70
2022-08-21T11:55:23.685Z,31.83
2022-08-21T11:57:59.256Z,31.88
2022-08-21T12:00:31.968Z,32.06
2022-08-21T12:03:17.762Z,32.03
2022-08-21T12:05:55.632Z,31.68
2022-08-21T12:08:39.784Z,31.81
2022-08-21T12:11:19.644Z,31.46
2022-08-21T12:14:14.293Z,31.63
2022-08-21T12:16:45.131Z,31.53
2022-08-21T12:19:33.397Z,31.60
2022-08-21T12:22:12.111Z,31.70
2022-08-21T12:24:47.285Z,31.79
2022-08-21T12:27:43.216Z,31.89
2022-08-21T12:30:34.256Z,32.03
2022-08-21T12:33:20.617Z,31.94
2022-08-21T12:35:50.883Z,31.99
2022-08-21T12:39:05.906Z,31.95
2022-08-21T12:42:09.792Z,31.89
2022-08-21T12:44:47.014Z,31.32
2022-08-21T12:47:49.300Z,31.57
2022-08-21T12:50:58.607Z,31.64
2022-08-21T12:53:52.372Z,31.59
2022-08-21T12:56:25.041Z,31.71
2022-08-21T12:59:19.533Z,31.67
2022-08-21T13:01:50.637Z,31.78
2022-08-21T13:04:23.376Z,31.72
2022-08-21T13:06:55.610Z,31.73
2022-08-21T13:09:28.541Z,31.65
2022-08-21T13:11:58.642Z,31.54
2022-08-21T13:15:47.922Z,31.37
2022-08-21T13:18:24.776Z,31.52
2022-08-21T13:20:53.754Z,31.67
2022-08-21T13:23:40.625Z,31.81
2022-08-21T13:26:19.867Z,31.94
2022-08-21T13:28:49.259Z,31.89
2022-08-21T13:31:26.368Z,31.70
2022-08-21T13:33:56.322Z,31.91
2022-08-21T13:36:32.970Z,31.90
2022-08-21T13:39:01.460Z,31.84
2022-08-21T13:41:31.849Z,31.89
2022-08-21T13:44:02.349Z,32.14
2022-08-21T13:46:37.110Z,32.04
2022-08-21T13:49:07.401Z,31.56
2022-08-21T13:51:36.371Z,31.50
2022-08-21T13:54:24.111Z,31.83
2022-08-21T13:56:52.921Z,32.03
2022-08-21T13:59:32.688Z,31.95
2022-08-21T14:02:08.398Z,32.05
2022-08-21T14:04:57.719Z,31.82
2022-08-21T14:07:33.472Z,31.82
2022-08-21T14:10:23.127Z,31.85
2022-08-21T14:12:59.701Z,31.55
2022-08-21T14:15:32.543Z,31.15
2022-08-21T14:18:30.518Z,31.17
2022-08-21T14:21:13.351Z,31.66
2022-08-21T14:23:42.587Z,32.02
2022-08-21T14:26:11.415Z,32.03
2022-08-21T14:28:42.404Z,31.66
2022-08-21T14:31:19.623Z,31.51
2022-08-21T14:33:48.644Z,31.58
2022-08-21T14:36:16.471Z,31.68
2022-08-21T14:38:43.970Z,31.76
2022-08-21T14:41:18.537Z,31.25
2022-08-21T14:44:04.048Z,31.60
2022-08-21T14:46:36.509Z,31.51
2022-08-21T14:49:10.399Z,31.37
2022-08-21T14:51:39.779Z,31.50
2022-08-21T14:54:22.423Z,31.73
2022-08-21T14:56:56.479Z,31.63
2022-08-21T14:59:24.493Z,31.60
2022-08-21T15:01:52.309Z,31.68
2022-08-21T15:04:19.846Z,31.75
2022-08-21T15:06:47.485Z,31.39
2022-08-21T15:09:14.959Z,31.25
2022-08-21T15:11:43.302Z,31.17
2022-08-21T15:14:18.790Z,31.28
2022-08-21T15:16:46.518Z,31.54
2022-08-21T15:19:13.927Z,31.52
2022-08-21T15:21:41.337Z,31.41
2022-08-21T15:24:08.734Z,31.44
2022-08-21T15:26:36.562Z,31.49
2022-08-21T15:29:06.939Z,31.58
2022-08-21T15:31:34.978Z,31.55
2022-08-21T15:34:03.035Z,31.68
2022-08-21T15:36:30.451Z,31.73
2022-08-21T15:38:57.856Z,31.68
2022-08-21T15:41:25.276Z,31.55
2022-08-21T15:43:54.231Z,31.40
2022-08-21T15:46:22.485Z,31.40
2022-08-21T15:48:50.351Z,31.34
2022-08-21T15:51:18.444Z,31.28
2022-08-21T15:53:47.374Z,31.33
2022-08-21T15:56:27.942Z,31.24
2022-08-21T15:59:02.067Z,30.92
2022-08-21T16:01:29.889Z,31.00
2022-08-21T16:04:19.090Z,31.11
2022-08-21T16:06:53.251Z,31.16
2022-08-21T16:09:23.571Z,31.19
2022-08-21T16:11:52.020Z,31.23
2022-08-21T16:14:19.518Z,31.32
2022-08-21T16:16:46.939Z,30.83
2022-08-21T16:19:15.037Z,31.01
2022-08-21T16:21:42.437Z,30.97
2022-08-21T16:24:09.910Z,30.92
2022-08-21T16:26:37.429Z,30.87
2022-08-21T16:29:07.383Z,30.99
2022-08-21T16:31:35.102Z,30.73
2022-08-21T16:34:02.934Z,30.78
2022-08-21T16:36:30.488Z,30.72
2022-08-21T16:38:59.137Z,30.69
2022-08-21T16:41:31.864Z,30.68
2022-08-21T16:44:01.105Z,30.63
2022-08-21T16:46:33.053Z,30.82
2022-08-21T16:49:00.490Z,30.55
2022-08-21T16:51:27.844Z,30.56
2022-08-21T16:53:55.239Z,30.58
2022-08-21T16:56:22.949Z,30.46
2022-08-21T16:58:51.874Z,30.52
2022-08-21T17:01:22.383Z,30.63
2022-08-21T17:03:51.311Z,30.35
2022-08-21T17:06:20.098Z,30.07
2022-08-21T17:08:52.478Z,29.82
2022-08-21T17:11:36.665Z,29.50
2022-08-21T17:14:12.274Z,29.31
2022-08-21T17:16:41.801Z,29.39
2022-08-21T17:19:09.196Z,29.47
2022-08-21T17:21:36.642Z,28.87
2022-08-21T17:24:04.643Z,28.72
2022-08-21T17:26:32.790Z,28.53
2022-08-21T17:29:01.419Z,28.18
2022-08-21T17:31:30.132Z,27.88
2022-08-21T17:33:57.690Z,27.87
2022-08-21T17:36:28.121Z,27.61
2022-08-21T17:38:56.947Z,27.37
2022-08-21T17:41:26.092Z,27.26
2022-08-21T17:43:55.020Z,27.14
2022-08-21T17:46:26.783Z,26.93
2022-08-21T17:48:55.692Z,26.83
2022-08-21T17:51:23.876Z,26.66
2022-08-21T17:53:51.226Z,26.58
2022-08-21T17:56:19.814Z,26.39
2022-08-21T17:58:51.909Z,26.24
2022-08-21T18:01:20.431Z,26.18
2022-08-21T18:03:48.238Z,26.21
2022-08-21T18:06:18.033Z,26.11
2022-08-21T18:08:46.842Z,26.00
2022-08-21T18:11:23.747Z,25.94
2022-08-21T18:13:54.089Z,25.83
2022-08-21T18:16:22.902Z,25.74
2022-08-21T18:18:51.691Z,25.70
2022-08-21T18:21:19.950Z,25.83
2022-08-21T18:23:47.699Z,25.91
2022-08-21T18:26:18.646Z,25.91
2022-08-21T18:28:46.508Z,25.92
2022-08-21T18:31:14.323Z,25.98
2022-08-21T18:33:55.971Z,26.06
2022-08-21T18:36:29.752Z,26.19
2022-08-21T18:39:13.491Z,26.20
2022-08-21T18:41:46.978Z,26.12
2022-08-21T18:44:16.909Z,26.04
2022-08-21T18:46:49.749Z,25.94
2022-08-21T18:49:17.893Z,25.94
2022-08-21T18:51:46.948Z,26.00
2022-08-21T18:54:15.016Z,26.00
2022-08-21T18:56:43.190Z,25.92
2022-08-21T18:59:12.799Z,25.67
2022-08-21T19:01:42.003Z,25.69
2022-08-21T19:04:21.310Z,25.44
2022-08-21T19:06:57.593Z,25.47
2022-08-21T19:09:25.859Z,25.56
2022-08-21T19:11:53.793Z,25.41
2022-08-21T19:14:22.767Z,25.34
2022-08-21T19:16:52.392Z,25.39
2022-08-21T19:19:19.839Z,25.45
2022-08-21T19:24:35.500Z,25.42
2022-08-21T19:27:03.173Z,25.42
2022-08-21T19:29:35.011Z,25.45
2022-08-21T19:32:07.639Z,25.35
2022-08-21T19:34:38.536Z,25.24
2022-08-21T19:37:12.069Z,25.03
2022-08-21T19:39:42.452Z,24.82
2022-08-21T19:42:13.126Z,24.85
2022-08-21T19:44:41.509Z,24.72
2022-08-21T19:50:17.631Z,24.66
2022-08-21T19:52:51.241Z,24.71
2022-08-21T19:55:19.297Z,24.68
2022-08-21T19:57:46.788Z,24.77
2022-08-21T20:00:17.192Z,24.82
2022-08-21T20:02:48.134Z,24.76
2022-08-21T20:05:19.347Z,24.81
2022-08-21T20:07:48.936Z,24.85
2022-08-21T20:10:18.748Z,24.87
2022-08-21T20:12:49.368Z,24.57
2022-08-21T20:15:22.033Z,24.09
2022-08-21T20:17:50.643Z,24.17
2022-08-21T20:20:18.170Z,24.18
2022-08-21T20:22:45.840Z,24.24
2022-08-21T20:25:13.404Z,24.29
2022-08-21T20:27:41.298Z,24.41
2022-08-21T20:30:10.700Z,24.25
2022-08-21T20:32:38.302Z,24.35
2022-08-21T20:35:13.542Z,24.32
2022-08-21T20:37:41.618Z,24.26
2022-08-21T20:40:12.642Z,24.10
2022-08-21T20:42:44.941Z,24.07
2022-08-21T20:45:19.842Z,24.03
2022-08-21T20:47:52.616Z,23.99
2022-08-21T20:50:24.770Z,24.05
2022-08-21T20:52:58.023Z,24.05
2022-08-21T20:55:29.071Z,24.06
2022-08-21T20:58:15.208Z,23.82
2022-08-21T21:00:43.646Z,23.88
2022-08-21T21:03:16.817Z,23.84
2022-08-21T21:05:50.463Z,23.93
2022-08-21T21:08:20.318Z,23.86
2022-08-21T21:10:56.694Z,23.98
2022-08-21T21:13:28.236Z,23.74
2022-08-21T21:16:02.620Z,23.93
2022-08-21T21:18:34.271Z,23.69
2022-08-21T21:21:37.237Z,23.62
2022-08-21T21:24:22.793Z,23.52
2022-08-21T21:27:11.652Z,23.51
2022-08-21T21:29:45.405Z,23.50
2022-08-21T21:32:17.766Z,23.48
2022-08-21T21:34:47.503Z,23.41
2022-08-21T21:37:30.392Z,23.49
2022-08-21T21:40:10.408Z,23.55
2022-08-21T21:42:57.123Z,23.51
2022-08-21T21:45:30.850Z,23.37
2022-08-21T21:48:10.434Z,23.56
2022-08-21T21:50:53.496Z,23.35
2022-08-21T21:53:20.930Z,23.24
2022-08-21T21:55:57.294Z,23.25
2022-08-21T21:58:37.699Z,23.19
2022-08-21T22:01:24.239Z,23.26
2022-08-21T22:04:04.580Z,23.33
2022-08-21T22:06:51.359Z,23.35
2022-08-21T22:09:22.451Z,23.32
2022-08-21T22:12:15.634Z,23.13
2022-08-21T22:14:46.651Z,23.31
2022-08-21T22:17:35.997Z,23.18
2022-08-21T22:20:14.376Z,23.19
2022-08-21T22:22:44.016Z,23.27
2022-08-21T22:25:26.364Z,23.29
2022-08-21T22:28:02.852Z,23.43
2022-08-21T22:30:52.532Z,23.45
2022-08-21T22:33:24.423Z,23.39
2022-08-21T22:35:54.785Z,23.46
2022-08-21T22:38:33.919Z,23.39
2022-08-21T22:41:17.242Z,23.51
2022-08-21T22:46:58.286Z,23.50
2022-08-21T22:49:28.447Z,23.56
2022-08-21T22:52:07.303Z,23.67
2022-08-21T22:54:42.362Z,23.68
2022-08-21T22:57:24.245Z,23.52
2022-08-21T22:59:55.536Z,23.21
2022-08-21T23:02:31.919Z,23.00
2022-08-21T23:05:04.004Z,22.77
2022-08-21T23:07:44.475Z,22.59
2022-08-21T23:10:40.822Z,22.56
2022-08-21T23:13:13.274Z,22.33
2022-08-21T23:15:54.379Z,22.31
2022-08-21T23:18:54.281Z,22.37
2022-08-21T23:21:50.181Z,22.16
2022-08-21T23:24:37.907Z,22.02
2022-08-21T23:27:48.382Z,22.07
2022-08-21T23:30:23.631Z,22.12
2022-08-21T23:33:03.148Z,22.04
2022-08-21T23:36:12.037Z,22.01
2022-08-21T23:38:45.549Z,22.11
2022-08-21T23:44:33.529Z,21.99
2022-08-21T23:47:28.904Z,21.99
2022-08-21T23:50:14.123Z,21.95
2022-08-21T23:52:48.896Z,21.94
2022-08-21T23:55:40.551Z,21.93
2022-08-21T23:58:29.275Z,22.01
